Time;durP1;ratioP1;P1;durP2;ratioP2;P2;SDS_P1;SDS_P2;PMS_P1;PMS_P2;Temp;Humidity;BMP_temperature;BMP_pressure;BME280_temperature;BME280_humidity;BME280_pressure;Samples;Min_cycle;Max_cycle;Signal;HPM_P1;HPM_P2
2024/04/05 00:00:28;;;;;;;1.40;1.30;;;;;;;9.94;79.38;96971.13;105008;1260;99266;-73
2024/04/05 00:03:15;;;;;;;1.30;1.00;;;;;;;9.95;79.54;96974.00;105087;1258;99333;-73
2024/04/05 00:05:42;;;;;;;3.20;1.20;;;;;;;9.96;79.53;96974.23;105048;1252;99936;-73
2024/04/05 00:08:10;;;;;;;2.70;1.20;;;;;;;9.97;79.60;96976.35;105036;1263;99282;-73
2024/04/05 00:10:38;;;;;;;2.00;1.20;;;;;;;9.99;79.64;96972.11;105050;1258;99448;-73
2024/04/05 00:13:06;;;;;;;1.50;1.00;;;;;;;10.01;79.58;96974.05;105099;1257;100587;-79
2024/04/05 00:15:39;;;;;;;1.20;1.10;;;;;;;10.03;79.55;96973.39;105006;1258;99219;-75
2024/04/05 00:18:06;;;;;;;1.10;0.90;;;;;;;10.04;79.47;96970.02;105063;1257;99784;-75
2024/04/05 00:20:34;;;;;;;1.60;1.00;;;;;;;10.04;79.38;96968.36;105023;1257;100578;-74
2024/04/05 00:23:01;;;;;;;1.60;0.90;;;;;;;10.05;79.63;96967.04;105014;1257;99336;-75
2024/04/05 00:25:29;;;;;;;1.70;1.00;;;;;;;10.03;79.48;96969.36;105046;1270;99282;-74
2024/04/05 00:27:56;;;;;;;2.30;1.00;;;;;;;10.05;79.31;96964.67;104969;1260;99270;-75
2024/04/05 00:30:26;;;;;;;1.30;1.20;;;;;;;10.07;79.36;96960.98;105019;1257;99756;-74
2024/04/05 00:32:54;;;;;;;3.00;0.80;;;;;;;10.09;79.28;96959.05;104963;1257;105137;-79
2024/04/05 00:35:21;;;;;;;1.00;0.90;;;;;;;10.09;79.30;96957.55;105045;1256;99244;-79
2024/04/05 00:37:49;;;;;;;1.80;0.90;;;;;;;10.10;79.24;96957.34;105010;1257;99263;-79
2024/04/05 00:40:16;;;;;;;1.70;1.00;;;;;;;10.09;79.11;96956.27;105105;1257;99261;-79
2024/04/05 00:42:44;;;;;;;1.40;1.00;;;;;;;10.10;79.07;96959.95;105026;1256;99661;-79
2024/04/05 00:45:12;;;;;;;1.50;1.00;;;;;;;10.13;79.06;96964.46;105062;1269;105155;-80
2024/04/05 00:47:40;;;;;;;1.10;0.90;;;;;;;10.14;79.11;96963.96;105024;1257;100468;-80
2024/04/05 00:50:07;;;;;;;1.90;1.00;;;;;;;10.14;79.04;96966.49;104965;1257;99270;-80
2024/04/05 00:52:35;;;;;;;3.50;1.00;;;;;;;10.13;78.93;96969.98;105056;1266;99240;-79
2024/04/05 00:55:03;;;;;;;1.70;1.00;;;;;;;10.14;78.99;96974.58;105022;1257;99794;-80
2024/04/05 00:57:31;;;;;;;1.40;0.80;;;;;;;10.14;78.84;96973.61;105034;1254;104929;-79
2024/04/05 00:59:59;;;;;;;2.20;0.90;;;;;;;10.15;78.73;96978.45;104925;1256;101316;-80
2024/04/05 01:02:26;;;;;;;3.10;0.70;;;;;;;10.16;78.68;96978.32;105005;1275;99960;-80
2024/04/05 01:04:54;;;;;;;1.10;0.80;;;;;;;10.13;78.70;96982.21;105028;1258;99241;-80
2024/04/05 01:07:21;;;;;;;1.50;0.90;;;;;;;10.11;78.54;96984.64;105095;1256;100915;-79
2024/04/05 01:09:49;;;;;;;1.20;1.00;;;;;;;10.11;78.40;96986.59;105021;1272;104992;-79
2024/04/05 01:12:17;;;;;;;1.00;0.60;;;;;;;10.12;78.35;96989.78;105044;1256;101278;-80
2024/04/05 01:14:45;;;;;;;1.60;0.90;;;;;;;10.11;78.49;96995.09;105052;1270;99810;-79
2024/04/05 01:17:12;;;;;;;0.80;0.70;;;;;;;10.10;78.32;96994.59;104980;1258;99252;-80
2024/04/05 01:19:41;;;;;;;1.30;0.90;;;;;;;10.11;78.26;96995.47;105076;1257;99378;-79
2024/04/05 01:22:11;;;;;;;1.20;0.60;;;;;;;10.13;78.08;96993.96;104780;1270;104119;-80
2024/04/05 01:24:41;;;;;;;2.10;0.70;;;;;;;10.12;78.04;96992.27;105065;1256;101583;-79
2024/04/05 01:27:09;;;;;;;1.90;0.90;;;;;;;10.10;77.96;96993.77;105042;1256;99791;-80
2024/04/05 01:29:36;;;;;;;1.40;0.80;;;;;;;10.09;77.95;96994.05;104970;1253;100553;-73
2024/04/05 01:32:04;;;;;;;2.00;0.70;;;;;;;10.09;77.95;96995.23;105072;1257;99213;-79
2024/04/05 01:34:31;;;;;;;1.60;1.00;;;;;;;10.07;77.97;96999.95;105014;1257;99250;-79
2024/04/05 01:36:59;;;;;;;1.10;0.60;;;;;;;10.05;77.89;97005.16;104990;1266;99321;-79
2024/04/05 01:39:26;;;;;;;1.00;0.80;;;;;;;10.04;77.93;97006.70;104986;1257;100142;-80
2024/04/05 01:41:54;;;;;;;0.70;0.60;;;;;;;10.04;77.68;97007.23;105018;1254;99331;-80
2024/04/05 01:44:22;;;;;;;1.20;0.80;;;;;;;10.04;77.50;97011.23;104998;1256;100553;-80
2024/04/05 01:46:49;;;;;;;1.40;0.80;;;;;;;10.03;77.33;97014.96;105030;1256;103983;-79
2024/04/05 01:49:17;;;;;;;1.30;0.70;;;;;;;10.01;77.26;97015.95;105014;1258;100463;-79
2024/04/05 01:51:44;;;;;;;2.60;0.80;;;;;;;9.99;77.26;97019.77;104972;1253;99374;-79
2024/04/05 01:54:11;;;;;;;0.90;0.70;;;;;;;9.98;77.29;97020.52;104959;1254;99366;-80
2024/04/05 01:56:39;;;;;;;1.60;0.70;;;;;;;9.97;77.09;97024.95;105049;1266;99344;-79
2024/04/05 01:59:08;;;;;;;3.50;0.70;;;;;;;9.98;77.05;97034.88;105030;1267;99291;-79
2024/04/05 02:01:36;;;;;;;1.30;0.80;;;;;;;9.98;77.11;97038.82;105110;1261;101356;-79
2024/04/05 02:04:03;;;;;;;2.40;1.00;;;;;;;9.98;76.92;97040.43;105082;1258;99359;-79
2024/04/05 02:06:31;;;;;;;1.30;0.60;;;;;;;9.99;76.95;97045.90;105068;1259;99257;-79
2024/04/05 02:08:59;;;;;;;1.40;1.00;;;;;;;10.01;76.76;97050.50;105030;1254;99266;-79
2024/04/05 02:11:27;;;;;;;1.40;0.80;;;;;;;10.02;76.65;97051.08;105054;1270;104030;-79
2024/04/05 02:13:54;;;;;;;1.90;0.80;;;;;;;10.03;76.46;97052.34;105057;1256;99231;-80
2024/04/05 02:16:22;;;;;;;0.70;0.50;;;;;;;10.02;76.38;97055.95;105050;1256;99341;-79
2024/04/05 02:18:49;;;;;;;0.60;0.50;;;;;;;10.03;76.35;97051.96;105003;1257;99192;-79
2024/04/05 02:21:17;;;;;;;2.20;0.80;;;;;;;10.01;76.21;97052.58;105046;1257;99291;-79
2024/04/05 02:23:44;;;;;;;1.20;0.70;;;;;;;9.99;76.20;97050.18;105014;1268;99282;-79
2024/04/05 02:26:12;;;;;;;2.90;0.90;;;;;;;9.99;76.11;97053.23;104973;1257;99260;-79
2024/04/05 02:28:39;;;;;;;1.60;0.70;;;;;;;9.99;75.98;97058.64;104939;1254;99391;-80
2024/04/05 02:31:10;;;;;;;1.50;0.80;;;;;;;9.96;75.91;97064.46;104945;1266;99264;-79
2024/04/05 02:33:37;;;;;;;2.60;1.10;;;;;;;9.93;75.92;97068.86;105005;1257;99730;-79
2024/04/05 02:36:05;;;;;;;1.10;0.80;;;;;;;9.90;75.85;97069.30;105014;1267;99269;-79
2024/04/05 02:38:33;;;;;;;2.40;0.90;;;;;;;9.88;75.79;97070.52;105068;1257;100370;-80
2024/04/05 02:41:04;;;;;;;1.20;0.70;;;;;;;9.87;75.85;97067.70;105038;1264;100524;-79
2024/04/05 02:43:31;;;;;;;1.20;0.80;;;;;;;9.87;75.73;97066.63;105028;1275;100542;-79
2024/04/05 02:45:59;;;;;;;2.30;0.70;;;;;;;9.89;75.62;97070.57;105072;1254;99264;-72
2024/04/05 02:48:26;;;;;;;2.50;0.80;;;;;;;9.90;75.56;97068.61;105029;1257;103998;-72
2024/04/05 02:50:54;;;;;;;2.00;0.50;;;;;;;9.90;75.47;97069.44;105017;1254;100670;-72
2024/04/05 02:53:23;;;;;;;2.40;0.90;;;;;;;9.90;75.47;97071.10;105008;1257;99342;-72
2024/04/05 02:55:50;;;;;;;0.90;0.50;;;;;;;9.90;75.37;97071.14;104991;1267;99333;-72
2024/04/05 02:58:18;;;;;;;2.10;0.80;;;;;;;9.90;75.35;97071.41;105053;1267;100589;-72
2024/04/05 03:00:48;;;;;;;1.40;0.90;;;;;;;9.91;75.31;97075.27;105019;1256;100757;-80
2024/04/05 03:03:16;;;;;;;4.00;0.50;;;;;;;9.93;75.17;97076.95;104966;1253;101465;-80
2024/04/05 03:05:43;;;;;;;1.30;0.50;;;;;;;9.96;75.05;97075.25;105033;1254;99879;-79
2024/04/05 03:08:11;;;;;;;1.50;0.90;;;;;;;9.99;74.87;97078.97;105054;1275;99288;-78
2024/04/05 03:10:38;;;;;;;1.00;0.80;;;;;;;10.02;74.69;97079.56;105043;1266;99241;-79
2024/04/05 03:13:07;;;;;;;2.00;0.80;;;;;;;10.04;74.64;97074.62;105130;1264;99930;-79
2024/04/05 03:15:35;;;;;;;1.20;0.60;;;;;;;10.07;74.39;97070.42;105106;1257;101089;-79
2024/04/05 03:18:04;;;;;;;1.70;1.00;;;;;;;10.11;74.38;97074.55;105022;1257;100647;-79
2024/04/05 03:20:31;;;;;;;1.20;0.50;;;;;;;10.13;74.06;97082.17;105093;1256;99312;-79
2024/04/05 03:22:59;;;;;;;1.70;0.70;;;;;;;10.14;73.82;97085.22;105084;1256;100580;-79
2024/04/05 03:25:26;;;;;;;3.30;0.60;;;;;;;10.16;73.85;97081.34;105084;1267;105959;-79
2024/04/05 03:27:54;;;;;;;3.90;0.70;;;;;;;10.18;73.73;97086.17;105037;1257;99256;-79
2024/04/05 03:30:22;;;;;;;0.80;0.40;;;;;;;10.19;73.48;97090.49;105007;1266;99451;-79
2024/04/05 03:32:49;;;;;;;3.00;0.90;;;;;;;10.20;73.33;97096.09;104978;1254;100613;-80
2024/04/05 03:35:17;;;;;;;1.60;0.70;;;;;;;10.21;73.11;97100.45;105063;1256;99260;-79
2024/04/05 03:37:44;;;;;;;1.50;0.90;;;;;;;10.22;73.05;97105.38;104999;1257;103993;-80
2024/04/05 03:40:12;;;;;;;0.80;0.80;;;;;;;10.23;72.95;97113.19;105038;1256;99193;-79
2024/04/05 03:42:39;;;;;;;2.20;0.60;;;;;;;10.23;72.83;97116.63;105026;1256;99458;-80
2024/04/05 03:45:07;;;;;;;1.30;0.70;;;;;;;10.24;72.70;97112.85;105033;1256;99264;-80
2024/04/05 03:47:34;;;;;;;2.10;0.70;;;;;;;10.26;72.44;97113.08;105026;1267;99817;-79
2024/04/05 03:50:02;;;;;;;3.60;0.90;;;;;;;10.28;72.28;97120.27;105019;1266;99266;-80
2024/04/05 03:52:29;;;;;;;1.50;0.70;;;;;;;10.31;72.32;97123.21;105026;1256;101423;-80
2024/04/05 03:54:57;;;;;;;1.70;0.40;;;;;;;10.31;72.25;97128.89;104972;1257;99260;-79
2024/04/05 03:57:24;;;;;;;2.20;0.80;;;;;;;10.32;72.18;97133.75;105051;1256;99342;-80
2024/04/05 03:59:54;;;;;;;1.70;0.60;;;;;;;10.32;72.06;97135.75;105021;1261;100508;-80
2024/04/05 04:02:23;;;;;;;3.50;1.20;;;;;;;10.32;71.95;97137.77;105077;1253;104970;-80
2024/04/05 04:04:51;;;;;;;1.00;0.70;;;;;;;10.33;72.06;97137.77;105090;1257;101661;-72
2024/04/05 04:07:19;;;;;;;1.30;0.80;;;;;;;10.34;72.29;97143.42;105084;1257;100586;-72
2024/04/05 04:09:46;;;;;;;1.90;1.00;;;;;;;10.32;72.78;97146.08;105032;1256;99299;-75
2024/04/05 04:12:14;;;;;;;3.90;1.00;;;;;;;10.24;72.84;97146.98;105104;1253;99679;-75
2024/04/05 04:14:42;;;;;;;1.90;1.00;;;;;;;10.18;73.03;97150.57;104978;1256;104482;-75
2024/04/05 04:17:10;;;;;;;1.90;0.90;;;;;;;10.13;73.37;97146.69;105132;1256;101399;-80
2024/04/05 04:19:38;;;;;;;1.80;0.60;;;;;;;10.12;73.37;97150.68;105022;1256;99726;-80
2024/04/05 04:22:07;;;;;;;2.80;0.80;;;;;;;10.09;73.52;97150.81;105088;1257;99950;-80
2024/04/05 04:24:34;;;;;;;1.90;1.00;;;;;;;10.06;73.74;97150.41;105167;1267;99753;-72
2024/04/05 04:27:02;;;;;;;3.20;1.60;;;;;;;10.03;73.84;97153.27;104654;1260;103836;-72
2024/04/05 04:29:31;;;;;;;4.30;1.80;;;;;;;10.01;74.07;97150.94;105059;1269;99232;-72
2024/04/05 04:31:58;;;;;;;5.50;3.20;;;;;;;9.99;74.16;97151.27;105107;1252;99932;-79
2024/04/05 04:34:26;;;;;;;6.00;3.90;;;;;;;9.94;74.18;97154.48;105022;1254;100563;-80
2024/04/05 04:36:53;;;;;;;7.50;4.40;;;;;;;9.89;74.08;97157.29;104989;1256;99247;-80
2024/04/05 04:39:21;;;;;;;8.90;4.00;;;;;;;9.86;74.18;97165.80;105035;1259;100674;-79
2024/04/05 04:41:48;;;;;;;6.70;4.00;;;;;;;9.82;74.30;97169.73;105052;1254;99330;-79
2024/04/05 04:44:16;;;;;;;6.90;3.70;;;;;;;9.72;74.34;97175.58;104948;1254;99240;-79
2024/04/05 04:46:44;;;;;;;8.20;3.90;;;;;;;9.66;74.52;97179.20;105004;1254;100610;-80
2024/04/05 04:49:11;;;;;;;6.70;3.00;;;;;;;9.61;74.64;97183.48;105093;1257;99740;-79
2024/04/05 04:51:39;;;;;;;4.70;2.90;;;;;;;9.59;74.88;97184.02;105091;1256;103480;-80
2024/04/05 04:54:06;;;;;;;4.20;3.10;;;;;;;9.59;74.91;97184.98;105057;1257;99324;-79
2024/04/05 04:56:34;;;;;;;7.00;2.50;;;;;;;9.57;75.00;97188.83;104986;1267;99383;-79
2024/04/05 04:59:01;;;;;;;6.50;3.00;;;;;;;9.54;75.12;97188.84;105050;1254;99308;-79
2024/04/05 05:01:29;;;;;;;5.20;2.40;;;;;;;9.55;75.25;97191.54;105080;1257;99616;-72
2024/04/05 05:03:56;;;;;;;5.70;2.90;;;;;;;9.56;75.35;97195.75;105049;1275;104053;-72
2024/04/05 05:06:24;;;;;;;4.20;2.20;;;;;;;9.57;75.44;97192.02;104990;1269;99251;-72
2024/04/05 05:08:52;;;;;;;2.50;2.00;;;;;;;9.56;75.50;97188.26;105055;1264;100129;-72
2024/04/05 05:11:19;;;;;;;7.50;2.40;;;;;;;9.57;75.72;97189.61;105150;1253;99205;-72
2024/04/05 05:13:47;;;;;;;5.30;2.70;;;;;;;9.57;75.69;97189.08;105162;1256;99234;-72
2024/04/05 05:16:16;;;;;;;4.10;2.40;;;;;;;9.58;75.78;97187.05;105244;1256;99392;-79
2024/04/05 05:18:44;;;;;;;6.50;2.40;;;;;;;9.62;75.98;97193.69;105227;1254;101033;-80
2024/04/05 05:21:11;;;;;;;3.00;2.10;;;;;;;9.64;76.04;97199.58;105148;1267;99261;-72
2024/04/05 05:23:39;;;;;;;3.80;2.10;;;;;;;9.66;76.11;97203.16;105139;1258;99393;-80
2024/04/05 05:26:06;;;;;;;2.90;1.80;;;;;;;9.69;76.22;97204.52;105012;1253;99260;-79
2024/04/05 05:28:34;;;;;;;4.70;1.90;;;;;;;9.72;76.32;97209.66;105050;1256;104571;-79
2024/04/05 05:31:01;;;;;;;4.50;1.70;;;;;;;9.76;76.37;97215.54;105043;1254;100349;-80
2024/04/05 05:33:29;;;;;;;5.40;1.40;;;;;;;9.81;76.27;97217.56;104943;1264;100539;-79
2024/04/05 05:35:57;;;;;;;4.80;1.30;;;;;;;9.87;76.01;97218.48;104998;1257;99309;-79
2024/04/05 05:38:24;;;;;;;4.00;1.10;;;;;;;9.96;75.61;97218.52;104952;1257;99753;-80
2024/04/05 05:40:52;;;;;;;2.90;1.00;;;;;;;10.05;75.36;97218.53;104987;1264;99256;-74
2024/04/05 05:43:19;;;;;;;2.50;1.00;;;;;;;10.13;75.09;97217.19;105040;1257;99244;-74
2024/04/05 05:45:46;;;;;;;3.80;1.10;;;;;;;10.19;74.99;97214.36;104966;1254;99269;-75
2024/04/05 05:48:14;;;;;;;2.50;1.20;;;;;;;10.28;74.83;97223.00;104992;1257;99253;-74
2024/04/05 05:50:43;;;;;;;2.50;1.10;;;;;;;10.37;74.53;97225.75;105077;1257;102911;-74
2024/04/05 05:53:10;;;;;;;2.50;1.70;;;;;;;10.44;74.30;97224.73;105081;1257;104912;-74
2024/04/05 05:55:38;;;;;;;1.90;1.10;;;;;;;10.52;74.11;97229.00;104956;1254;99256;-74
2024/04/05 05:58:05;;;;;;;2.30;0.90;;;;;;;10.61;73.94;97230.01;105022;1254;99254;-78
2024/04/05 06:00:33;;;;;;;6.10;1.30;;;;;;;10.68;73.49;97230.12;105088;1257;100568;-79
2024/04/05 06:03:00;;;;;;;2.30;1.10;;;;;;;10.75;73.20;97230.08;105380;1256;99270;-79
2024/04/05 06:05:28;;;;;;;2.70;1.00;;;;;;;10.82;73.12;97229.05;105098;1254;104564;-79
2024/04/05 06:07:56;;;;;;;3.30;1.30;;;;;;;10.88;72.56;97231.61;105080;1256;99200;-79
2024/04/05 06:10:23;;;;;;;5.60;1.30;;;;;;;10.92;72.25;97235.00;105012;1252;99962;-79
2024/04/05 06:12:50;;;;;;;1.60;1.00;;;;;;;10.97;72.13;97240.75;105105;1254;99260;-79
2024/04/05 06:15:18;;;;;;;2.20;1.20;;;;;;;11.03;72.11;97244.61;105091;1254;99339;-79
2024/04/05 06:17:49;;;;;;;7.10;1.80;;;;;;;11.08;71.76;97245.00;105025;1269;99266;-79
2024/04/05 06:20:16;;;;;;;2.30;1.00;;;;;;;11.13;71.52;97242.01;104970;1258;100464;-77
2024/04/05 06:22:44;;;;;;;2.10;1.20;;;;;;;11.17;71.25;97237.83;104946;1257;99838;-79
2024/04/05 06:25:11;;;;;;;2.20;1.10;;;;;;;11.23;71.20;97238.36;105001;1258;99320;-79
2024/04/05 06:27:39;;;;;;;4.40;1.40;;;;;;;11.28;71.12;97240.48;105019;1256;99691;-79
2024/04/05 06:30:08;;;;;;;1.60;0.80;;;;;;;11.34;70.85;97243.39;105016;1257;99331;-80
2024/04/05 06:32:36;;;;;;;2.40;0.50;;;;;;;11.40;70.34;97244.70;105131;1257;101547;-79
2024/04/05 06:35:03;;;;;;;3.80;0.80;;;;;;;11.46;69.15;97249.52;104987;1264;99270;-79
2024/04/05 06:37:33;;;;;;;2.50;0.90;;;;;;;11.54;69.22;97257.23;104977;1269;99229;-79
2024/04/05 06:40:01;;;;;;;1.90;0.70;;;;;;;11.62;69.18;97255.38;105061;1266;99734;-79
2024/04/05 06:42:28;;;;;;;2.40;0.60;;;;;;;11.70;68.89;97262.09;104897;1263;104825;-77
2024/04/05 06:44:56;;;;;;;2.70;0.90;;;;;;;11.79;68.69;97268.61;105043;1254;100102;-79
2024/04/05 06:47:24;;;;;;;1.90;1.00;;;;;;;11.90;68.68;97266.97;105038;1254;99323;-79
2024/04/05 06:49:52;;;;;;;2.70;1.20;;;;;;;12.01;68.10;97269.23;104921;1256;99800;-79
2024/04/05 06:52:20;;;;;;;1.90;0.70;;;;;;;12.08;67.11;97273.85;105001;1257;100846;-79
2024/04/05 06:54:47;;;;;;;1.60;0.70;;;;;;;12.15;67.22;97270.42;105018;1252;99339;-79
2024/04/05 06:57:15;;;;;;;3.00;1.00;;;;;;;12.21;67.55;97277.21;105054;1257;99189;-79
2024/04/05 06:59:42;;;;;;;3.20;1.50;;;;;;;12.24;67.27;97279.52;105016;1258;99297;-74
2024/04/05 07:02:10;;;;;;;3.20;1.10;;;;;;;12.27;66.74;97285.36;105014;1259;99384;-79
2024/04/05 07:04:37;;;;;;;2.20;0.80;;;;;;;12.28;66.25;97288.22;105052;1256;99353;-79
2024/04/05 07:07:05;;;;;;;1.70;0.70;;;;;;;12.33;66.29;97288.98;104965;1257;99343;-79
2024/04/05 07:09:33;;;;;;;2.00;0.90;;;;;;;12.39;66.22;97292.10;105017;1264;101403;-79
2024/04/05 07:12:04;;;;;;;4.30;1.00;;;;;;;12.44;66.46;97292.99;105055;1270;99334;-79
2024/04/05 07:14:32;;;;;;;3.50;0.90;;;;;;;12.48;66.88;97289.56;105015;1267;99265;-79
2024/04/05 07:16:59;;;;;;;1.80;0.90;;;;;;;12.55;66.42;97292.74;105023;1256;99253;-75
2024/04/05 07:19:27;;;;;;;5.00;1.10;;;;;;;12.65;66.03;97290.33;104871;1260;105112;-75
2024/04/05 07:21:55;;;;;;;2.50;0.80;;;;;;;12.73;65.97;97296.56;105026;1254;100123;-74
2024/04/05 07:24:22;;;;;;;3.00;0.90;;;;;;;12.84;65.78;97295.52;105022;1254;99426;-75
2024/04/05 07:26:50;;;;;;;1.90;1.00;;;;;;;12.96;65.28;97295.64;104968;1254;99292;-74
2024/04/05 07:29:17;;;;;;;3.20;0.90;;;;;;;13.11;64.82;97295.07;104970;1258;99266;-74
2024/04/05 07:31:48;;;;;;;2.70;1.30;;;;;;;13.30;64.68;97296.98;105006;1256;99221;-72
2024/04/05 07:34:16;;;;;;;2.80;1.00;;;;;;;13.50;64.10;97295.77;105043;1257;101253;-72
2024/04/05 07:36:45;;;;;;;3.10;0.90;;;;;;;13.62;63.43;97292.69;104947;1257;99713;-72
2024/04/05 07:39:13;;;;;;;5.70;2.30;;;;;;;13.70;63.13;97295.53;105098;1268;99228;-72
2024/04/05 07:41:40;;;;;;;4.60;2.40;;;;;;;13.75;63.06;97298.71;105012;1254;99676;-72
2024/04/05 07:44:08;;;;;;;4.70;2.40;;;;;;;13.79;62.94;97298.46;105009;1264;104773;-72
2024/04/05 07:46:35;;;;;;;3.70;2.00;;;;;;;13.84;62.70;97305.44;105034;1257;99259;-80
2024/04/05 07:49:03;;;;;;;3.90;1.20;;;;;;;13.89;62.38;97303.92;105007;1256;99603;-78
2024/04/05 07:51:30;;;;;;;3.90;1.50;;;;;;;13.98;62.45;97305.90;105179;1257;100581;-79
2024/04/05 07:53:58;;;;;;;4.20;1.00;;;;;;;14.06;61.88;97303.42;105040;1255;99248;-79
2024/04/05 07:56:27;;;;;;;3.60;1.10;;;;;;;14.16;61.71;97300.98;105072;1254;99724;-80
2024/04/05 07:58:54;;;;;;;1.80;1.00;;;;;;;14.51;61.51;97303.90;105083;1257;101467;-79
2024/04/05 08:01:23;;;;;;;2.20;0.80;;;;;;;14.96;60.50;97304.42;105039;1256;99447;-79
2024/04/05 08:03:51;;;;;;;7.90;1.60;;;;;;;15.10;59.24;97303.82;105005;1257;99418;-79
2024/04/05 08:06:18;;;;;;;2.00;0.90;;;;;;;15.11;59.23;97300.48;105008;1256;99756;-80
2024/04/05 08:08:46;;;;;;;1.90;1.10;;;;;;;15.11;58.85;97297.48;105088;1264;99174;-79
2024/04/05 08:11:14;;;;;;;2.10;0.70;;;;;;;15.13;58.63;97299.48;105060;1254;101075;-79
2024/04/05 08:13:41;;;;;;;3.00;0.90;;;;;;;15.14;58.51;97300.25;105125;1257;99800;-79
2024/04/05 08:16:09;;;;;;;1.30;1.00;;;;;;;15.08;58.58;97297.55;105030;1257;99282;-79
2024/04/05 08:18:36;;;;;;;1.50;0.70;;;;;;;15.14;58.14;97300.15;105110;1254;100467;-79
2024/04/05 08:21:07;;;;;;;2.70;0.90;;;;;;;15.12;57.77;97301.75;105003;1256;99369;-79
2024/04/05 08:23:34;;;;;;;3.40;1.00;;;;;;;15.12;58.01;97300.16;104983;1254;101584;-79
2024/04/05 08:26:02;;;;;;;5.30;1.10;;;;;;;15.21;57.92;97299.27;104993;1254;99311;-79
2024/04/05 08:28:30;;;;;;;3.50;0.90;;;;;;;15.36;57.72;97296.92;105054;1254;99260;-80
2024/04/05 08:30:58;;;;;;;2.30;1.40;;;;;;;15.45;57.53;97299.10;105063;1255;99676;-79
2024/04/05 08:33:28;;;;;;;5.50;2.40;;;;;;;15.86;57.56;97292.96;105050;1257;104057;-79
2024/04/05 08:35:56;;;;;;;1.80;1.50;;;;;;;16.62;57.25;97289.53;105101;1269;101080;-79
2024/04/05 08:38:24;;;;;;;2.50;1.00;;;;;;;17.07;55.42;97288.79;105133;1256;99997;-79
2024/04/05 08:40:52;;;;;;;1.30;0.70;;;;;;;17.12;53.51;97282.90;104989;1257;99667;-79
2024/04/05 08:43:25;;;;;;;2.60;1.00;;;;;;;17.18;53.98;97279.41;104942;1266;100984;-79
2024/04/05 08:45:52;;;;;;;2.10;0.80;;;;;;;17.54;54.00;97285.48;105114;1257;103898;-74
2024/04/05 08:48:22;;;;;;;2.80;1.20;;;;;;;17.58;53.39;97286.39;105073;1266;101427;-75
2024/04/05 08:50:51;;;;;;;2.30;1.10;;;;;;;17.56;52.54;97290.51;104947;1267;100193;-74
2024/04/05 08:53:19;;;;;;;2.40;0.90;;;;;;;17.74;52.66;97289.88;104987;1256;100546;-80
2024/04/05 08:55:48;;;;;;;2.90;0.80;;;;;;;17.84;52.19;97292.42;104987;1256;99694;-80
2024/04/05 08:58:16;;;;;;;2.90;1.00;;;;;;;17.71;52.12;97296.02;104964;1269;105395;-79
2024/04/05 09:00:44;;;;;;;1.70;1.00;;;;;;;17.50;51.51;97296.61;104968;1254;101508;-80
2024/04/05 09:03:11;;;;;;;4.80;0.90;;;;;;;17.34;51.75;97294.54;104990;1254;99955;-79
2024/04/05 09:05:41;;;;;;;1.40;1.10;;;;;;;17.22;51.44;97295.61;104942;1256;99219;-80
2024/04/05 09:08:09;;;;;;;1.20;0.90;;;;;;;17.23;51.88;97293.66;104989;1260;99670;-80
2024/04/05 09:10:36;;;;;;;2.80;1.10;;;;;;;17.40;51.98;97293.23;105030;1256;105062;-79
2024/04/05 09:13:05;;;;;;;1.70;0.90;;;;;;;17.54;52.22;97294.41;105026;1257;101277;-79
2024/04/05 09:15:32;;;;;;;3.80;1.00;;;;;;;17.52;51.69;97294.89;104989;1256;100010;-80
2024/04/05 09:18:01;;;;;;;2.50;0.80;;;;;;;17.41;51.37;97296.91;104988;1254;99359;-80
2024/04/05 09:20:30;;;;;;;3.50;1.20;;;;;;;17.34;51.42;97296.61;104958;1257;99705;-80
2024/04/05 09:23:02;;;;;;;3.80;1.40;;;;;;;17.30;49.89;97301.42;104993;1256;105101;-79
2024/04/05 09:25:30;;;;;;;;;;;;;;;17.41;50.86;97295.65;105034;1256;102885;-80
2024/04/05 09:28:24;;;;;;;2.80;1.10;;;;;;;17.65;51.09;97300.55;104972;1267;100132;-80
2024/04/05 09:30:57;;;;;;;1.60;1.00;;;;;;;17.82;50.85;97300.54;104941;1256;99346;-75
2024/04/05 09:33:24;;;;;;;2.40;1.10;;;;;;;18.04;50.65;97304.77;105004;1257;99756;-75
2024/04/05 09:35:54;;;;;;;4.40;1.20;;;;;;;18.05;50.61;97306.90;104906;1258;105064;-75
2024/04/05 09:38:24;;;;;;;2.20;0.90;;;;;;;17.92;50.15;97307.02;105022;1260;101568;-74
2024/04/05 09:40:53;;;;;;;2.20;0.60;;;;;;;17.85;50.14;97304.63;104986;1261;99278;-75
2024/04/05 09:43:21;;;;;;;1.80;0.90;;;;;;;17.97;49.63;97307.88;105062;1270;99263;-75
2024/04/05 09:45:49;;;;;;;2.00;1.00;;;;;;;18.04;48.30;97307.55;104969;1256;99244;-74
2024/04/05 09:48:18;;;;;;;3.70;0.80;;;;;;;17.88;48.47;97306.22;104953;1256;104755;-75
2024/04/05 09:50:47;;;;;;;2.60;0.90;;;;;;;17.67;48.53;97308.30;104998;1264;99427;-74
2024/04/05 09:53:16;;;;;;;4.20;0.90;;;;;;;17.48;48.71;97309.30;105074;1252;99393;-75
2024/04/05 09:55:49;;;;;;;2.90;1.00;;;;;;;17.30;48.45;97308.36;105020;1256;99247;-75
2024/04/05 09:58:19;;;;;;;3.20;0.90;;;;;;;17.05;48.27;97309.44;104991;1257;100468;-75
2024/04/05 10:00:48;;;;;;;1.60;0.80;;;;;;;16.91;49.04;97311.25;105100;1266;103934;-80
2024/04/05 10:03:15;;;;;;;2.40;1.20;;;;;;;17.06;49.57;97306.23;105147;1257;100102;-79
2024/04/05 10:05:45;;;;;;;4.40;0.90;;;;;;;17.55;49.84;97303.21;105042;1259;100093;-80
2024/04/05 10:08:16;;;;;;;2.10;0.80;;;;;;;18.09;49.31;97300.31;105027;1254;99321;-72
2024/04/05 10:10:45;;;;;;;3.50;1.00;;;;;;;18.53;47.99;97296.85;105124;1256;99302;-72
2024/04/05 10:13:17;;;;;;;2.10;0.90;;;;;;;18.85;47.26;97295.90;105206;1254;104911;-73
2024/04/05 10:16:01;;;;;;;2.30;1.00;;;;;;;19.28;48.12;97294.30;105038;1268;101358;-72
2024/04/05 10:18:32;;;;;;;2.60;0.90;;;;;;;19.81;47.17;97294.14;104948;1254;99378;-72
2024/04/05 10:21:00;;;;;;;2.90;0.90;;;;;;;20.21;46.94;97284.39;104886;1257;100662;-72
2024/04/05 10:23:28;;;;;;;4.10;1.20;;;;;;;20.58;46.44;97280.17;105130;1254;99783;-72
2024/04/05 10:25:57;;;;;;;3.00;1.00;;;;;;;20.88;45.83;97276.90;105018;1256;105114;-72
2024/04/05 10:28:25;;;;;;;2.10;1.10;;;;;;;21.18;45.21;97277.39;105118;1252;101400;-76
2024/04/05 10:31:15;;;;;;;3.20;1.10;;;;;;;21.37;43.25;97278.19;105143;1257;100176;-77
2024/04/05 10:33:52;;;;;;;2.80;0.90;;;;;;;21.01;41.06;97273.55;105028;1256;99258;-78
2024/04/05 10:36:36;;;;;;;2.40;0.80;;;;;;;20.82;42.01;97273.80;105018;1256;99768;-76
2024/04/05 10:39:53;;;;;;;2.00;0.70;;;;;;;20.94;41.74;97275.83;105097;1257;104584;-78
2024/04/05 10:42:47;;;;;;;1.50;0.60;;;;;;;21.09;41.61;97271.11;105014;1264;101554;-79
2024/04/05 10:45:36;;;;;;;3.80;0.60;;;;;;;21.20;41.28;97271.13;105051;1267;99876;-81
2024/04/05 10:48:44;;;;;;;3.20;1.30;;;;;;;21.31;40.52;97276.24;105036;1256;100585;-87
2024/04/05 10:51:42;;;;;;;5.20;0.80;;;;;;;21.48;40.72;97277.46;104814;1260;99745;-82
2024/04/05 10:54:15;;;;;;;2.00;0.60;;;;;;;21.66;38.76;97282.12;104864;1259;103742;-82
2024/04/05 10:57:23;;;;;;;2.00;1.10;;;;;;;21.69;39.34;97280.94;105008;1257;100073;-83
2024/04/05 11:00:32;;;;;;;1.50;0.50;;;;;;;22.04;39.01;97279.81;104947;1256;99676;-82
2024/04/05 11:03:17;;;;;;;2.10;0.80;;;;;;;22.18;37.07;97279.54;102454;1254;100603;-81
2024/04/05 11:06:25;;;;;;;1.80;1.00;;;;;;;22.21;37.71;97277.20;104983;1257;104961;-87
2024/04/05 11:09:14;;;;;;;2.10;0.60;;;;;;;22.42;37.34;97278.91;105004;1254;101443;-84
2024/04/05 11:12:03;;;;;;;5.70;0.90;;;;;;;22.38;35.47;97275.94;105029;1256;99286;-87
2024/04/05 11:15:11;;;;;;;2.00;0.80;;;;;;;22.22;35.69;97279.01;104909;1260;99288;-86
2024/04/05 11:17:41;;;;;;;1.30;0.60;;;;;;;21.97;36.02;97283.37;104921;1268;99768;-85
2024/04/05 11:20:52;;;;;;;1.60;0.60;;;;;;;21.79;36.51;97288.01;104933;1266;105030;-87
2024/04/05 11:23:21;;;;;;;1.70;0.80;;;;;;;21.50;36.90;97283.98;104822;1259;101539;-84
2024/04/05 11:26:32;;;;;;;2.10;0.80;;;;;;;21.34;37.00;97282.92;105044;1259;100240;-77
2024/04/05 11:29:40;;;;;;;1.70;0.80;;;;;;;21.12;37.56;97286.03;104892;1260;99363;-77
2024/04/05 11:32:33;;;;;;;2.90;0.90;;;;;;;21.02;37.45;97288.59;104814;1254;99336;-78
2024/04/05 11:35:41;;;;;;;1.70;0.70;;;;;;;20.87;36.13;97285.73;105023;1256;112663;-77
2024/04/05 11:38:42;;;;;;;4.10;0.70;;;;;;;20.91;37.06;97287.55;105060;1267;100589;-77